Huvudsida
METAR-TAF:

METAR-TAF

Flygplatser :

Midtjyllands Lufthavn

Karup, Danmark

latitud: 56-18N, longitud: 009-07E, höjd: 52 m

Aktuellt väderrapport

Denna rapport gjordes för 22 minuter sedan, klockan 12:50 UTC
Vind 3 kt varierande vindriktning
Temperatur 23°C
Fuktighet 50%
Tryck 1021 hPa
Sikt 10 km eller mer

METAR: EKKA 191250Z AUTO VRB03KT 9999 FEW040/// 23/12 Q1021

Tid: 15:12 (13:12 UTC)

Väderprognos

Denna rapport gjordes för 2 timmar och 4 minuter sedan, klockan 11:08 UTC
Prognos gäller från 19 kl. 12 UTC till 20 kl. 12 UTC
Vind 5 kt från sydväst
Sikt 10 km eller mer
Få moln på en höjd av 20000 ft
Blir
från 19 kl. 15 UTC till 19 kl. 18 UTC
Vind 3 kt varierande vindriktning
Sannolikhet 40%
från 20 kl. 02 UTC till 20 kl. 05 UTC
Sikt: 2500 m
dimbankar, fuktdis,

TAF: EKKA 191108Z 1912/2012 23005KT 9999 FEW200 BECMG 1915/1918 VRB03KT PROB40 2002/2005 2500 BCFG BR

Aktuella väderrapporter och prognoser från 4000 flygplatser (METAR- och TAF-rapporter).

De tillgängliga stationerna syns som gula och röda prickar på kartan.

För musen över prickarna för att se namnen på stationerna.

Klicka sedan för att få väderrapporter och prognoser.

För att ändra kartan: Klicka på de gröna knapparna med ett svart kors på för att zooma in; den gröna knappen med ett streck på för att zooma ut; eller på de gröna pilarna för angränsande kartor.


METAR-TAF: